MET'MAP v2.0
soon released !

Expected late october,
this new version will be
more efficient, smarter,
and hosted on a brand new
server x3 powerfull...
...and still free !


Not compatible ?
Try the mobile version !

LOG IN : | Subscribe | Disclaimer | Who is Orbifly ? |
ICAO code :

TAF - LBWN Varna Airport - 27 May 2020 19:10 UTC - Data Source NOAA   


- Airport Elevation : 230 ft
- IATA code : VAR
- No reported NOTAMs.


LBWN - Varna Airport

Latest METAR recorded : 2015/08/11 08:00 LBWN 110800Z 03008KT 350V110 CAVOK 30/16 Q1009 BECMG 11012KT
TAF TAF LBWN
Valid from the 27 at 12:00 until the 28 at 12:00 UTC


271100Z 2712/2812 03012KT 9999 SCT030
TEMPO 2712/2718 VRB18KT 4000 TSRA SCT030CB BKN040
BECMG 2718/2720 33014KT
PROB30
TEMPO 2720/2724 5000 SHRA FEW030CB
TEMPO 2809/2812 4000 TSRA SCT030CB OVC040

Source NOAA


MET'MAP, your aeronautical weather chart ! - Copyright ORBIFLY December 2007

Programming & Development : Alexandra Zaïnal
Co-Developer : Marc-Olivier Méhu
Technical & hardware support : Manuel Goepfert
Concept & Financing : Baudouin d'Aumeries